sensor_id;sensor_type;location;lat;lon;timestamp;pressure;altitude;pressure_sealevel;temperature;humidity
50684;BME280;36654;45.042;38.994;2023-04-07T00:00:25;101008.78;;;10.12;80.08
50684;BME280;36654;45.042;38.994;2023-04-07T00:02:51;101008.78;;;10.12;80.13
50684;BME280;36654;45.042;38.994;2023-04-07T00:05:16;101007.88;;;10.10;80.31
50684;BME280;36654;45.042;38.994;2023-04-07T00:07:42;101000.88;;;10.14;80.29
50684;BME280;36654;45.042;38.994;2023-04-07T00:10:08;101017.69;;;10.18;80.44
50684;BME280;36654;45.042;38.994;2023-04-07T00:12:34;100957.00;;;9.80;80.47
50684;BME280;36654;45.042;38.994;2023-04-07T00:15:00;101008.91;;;10.20;80.53
50684;BME280;36654;45.042;38.994;2023-04-07T00:17:26;100958.16;;;9.94;80.49
50684;BME280;36654;45.042;38.994;2023-04-07T00:19:51;101010.75;;;10.24;80.66
50684;BME280;36654;45.042;38.994;2023-04-07T00:22:17;100951.13;;;9.98;80.78
50684;BME280;36654;45.042;38.994;2023-04-07T00:24:42;100977.00;;;10.12;80.71
50684;BME280;36654;45.042;38.994;2023-04-07T00:27:09;101007.50;;;10.39;80.60
50684;BME280;36654;45.042;38.994;2023-04-07T00:29:34;101005.50;;;10.27;81.06
50684;BME280;36654;45.042;38.994;2023-04-07T00:32:00;101009.81;;;10.21;81.17
50684;BME280;36654;45.042;38.994;2023-04-07T00:34:25;101005.38;;;10.20;81.56
50684;BME280;36654;45.042;38.994;2023-04-07T00:36:51;100957.31;;;9.98;81.75
50684;BME280;36654;45.042;38.994;2023-04-07T00:39:17;100960.84;;;9.97;82.01
50684;BME280;36654;45.042;38.994;2023-04-07T00:41:44;101011.56;;;10.19;82.27
50684;BME280;36654;45.042;38.994;2023-04-07T00:44:10;100989.31;;;10.10;82.45
50684;BME280;36654;45.042;38.994;2023-04-07T00:46:36;100951.81;;;9.86;82.36
50684;BME280;36654;45.042;38.994;2023-04-07T00:49:02;101001.84;;;10.21;82.64
50684;BME280;36654;45.042;38.994;2023-04-07T00:51:28;100997.47;;;10.21;82.82
50684;BME280;36654;45.042;38.994;2023-04-07T00:53:54;101004.50;;;10.19;82.70
50684;BME280;36654;45.042;38.994;2023-04-07T00:56:20;100964.38;;;9.96;82.89
50684;BME280;36654;45.042;38.994;2023-04-07T00:58:45;101006.47;;;10.29;83.16
50684;BME280;36654;45.042;38.994;2023-04-07T01:01:24;101010.91;;;10.32;83.18
50684;BME280;36654;45.042;38.994;2023-04-07T01:04:01;101002.81;;;10.26;83.20
50684;BME280;36654;45.042;38.994;2023-04-07T01:06:30;101014.38;;;10.28;83.21
50684;BME280;36654;45.042;38.994;2023-04-07T01:09:10;101008.22;;;10.30;83.27
50684;BME280;36654;45.042;38.994;2023-04-07T01:11:47;100996.50;;;10.18;83.39
50684;BME280;36654;45.042;38.994;2023-04-07T01:14:17;100984.97;;;10.14;83.51
50684;BME280;36654;45.042;38.994;2023-04-07T01:16:49;101010.59;;;10.13;83.77
50684;BME280;36654;45.042;38.994;2023-04-07T01:22:37;101008.78;;;10.11;84.24
50684;BME280;36654;45.042;38.994;2023-04-07T01:25:26;101004.41;;;10.14;84.52
50684;BME280;36654;45.042;38.994;2023-04-07T01:28:13;100994.56;;;10.07;84.63
50684;BME280;36654;45.042;38.994;2023-04-07T01:30:41;101005.13;;;10.04;84.42
50684;BME280;36654;45.042;38.994;2023-04-07T01:33:09;100982.88;;;9.94;84.59
50684;BME280;36654;45.042;38.994;2023-04-07T01:35:36;101014.03;;;10.09;84.75
50684;BME280;36654;45.042;38.994;2023-04-07T01:38:04;101008.63;;;10.03;84.98
50684;BME280;36654;45.042;38.994;2023-04-07T01:40:33;101005.06;;;10.01;84.93
50684;BME280;36654;45.042;38.994;2023-04-07T01:43:00;101017.47;;;10.04;85.14
50684;BME280;36654;45.042;38.994;2023-04-07T01:45:27;101017.50;;;10.05;85.33
50684;BME280;36654;45.042;38.994;2023-04-07T01:47:54;101006.84;;;10.02;85.50
50684;BME280;36654;45.042;38.994;2023-04-07T01:50:20;101027.19;;;10.05;85.61
50684;BME280;36654;45.042;38.994;2023-04-07T01:52:47;101019.22;;;10.03;85.75
50684;BME280;36654;45.042;38.994;2023-04-07T01:55:13;101005.81;;;9.94;85.91
50684;BME280;36654;45.042;38.994;2023-04-07T01:57:38;101016.50;;;10.00;85.81
50684;BME280;36654;45.042;38.994;2023-04-07T02:00:05;100958.50;;;9.65;85.85
50684;BME280;36654;45.042;38.994;2023-04-07T02:02:35;100963.81;;;9.65;85.82
50684;BME280;36654;45.042;38.994;2023-04-07T02:05:08;101004.78;;;9.86;86.12
50684;BME280;36654;45.042;38.994;2023-04-07T02:08:00;100946.81;;;9.53;86.22
50684;BME280;36654;45.042;38.994;2023-04-07T02:10:28;101014.47;;;9.84;86.08
50684;BME280;36654;45.042;38.994;2023-04-07T02:12:55;101026.84;;;9.85;86.34
50684;BME280;36654;45.042;38.994;2023-04-07T02:15:23;101015.31;;;9.83;86.32
50684;BME280;36654;45.042;38.994;2023-04-07T02:17:51;100962.63;;;9.49;86.56
50684;BME280;36654;45.042;38.994;2023-04-07T02:20:19;100976.66;;;9.45;86.65
50684;BME280;36654;45.042;38.994;2023-04-07T02:22:45;101003.41;;;9.61;86.82
50684;BME280;36654;45.042;38.994;2023-04-07T02:25:25;101016.75;;;9.64;86.99
50684;BME280;36654;45.042;38.994;2023-04-07T02:27:51;101017.72;;;9.70;87.43
50684;BME280;36654;45.042;38.994;2023-04-07T02:30:18;101026.66;;;9.76;87.52
50684;BME280;36654;45.042;38.994;2023-04-07T02:32:43;101006.09;;;9.62;87.55
50684;BME280;36654;45.042;38.994;2023-04-07T02:35:10;101015.16;;;9.74;87.61
50684;BME280;36654;45.042;38.994;2023-04-07T02:37:37;101016.97;;;9.76;87.79
50684;BME280;36654;45.042;38.994;2023-04-07T02:40:03;101021.34;;;9.76;87.64
50684;BME280;36654;45.042;38.994;2023-04-07T02:42:29;100972.34;;;9.49;87.74
50684;BME280;36654;45.042;38.994;2023-04-07T02:44:55;101021.31;;;9.72;87.80
50684;BME280;36654;45.042;38.994;2023-04-07T02:47:20;101022.22;;;9.75;87.79
50684;BME280;36654;45.042;38.994;2023-04-07T02:49:46;100999.94;;;9.63;87.68
50684;BME280;36654;45.042;38.994;2023-04-07T02:52:12;101022.03;;;9.64;87.39
50684;BME280;36654;45.042;38.994;2023-04-07T02:54:37;101005.88;;;9.50;87.56
50684;BME280;36654;45.042;38.994;2023-04-07T02:57:03;100979.06;;;9.32;87.65
50684;BME280;36654;45.042;38.994;2023-04-07T02:59:29;101031.69;;;9.63;87.39
50684;BME280;36654;45.042;38.994;2023-04-07T03:01:54;101028.16;;;9.63;87.44
50684;BME280;36654;45.042;38.994;2023-04-07T03:04:21;101029.13;;;9.66;87.32
50684;BME280;36654;45.042;38.994;2023-04-07T03:06:46;101014.97;;;9.64;87.10
50684;BME280;36654;45.042;38.994;2023-04-07T03:09:14;101021.88;;;9.56;86.78
50684;BME280;36654;45.042;38.994;2023-04-07T03:11:40;101036.16;;;9.64;86.84
50684;BME280;36654;45.042;38.994;2023-04-07T03:14:06;101032.53;;;9.59;86.48
50684;BME280;36654;45.042;38.994;2023-04-07T03:16:32;101027.19;;;9.56;86.63
50684;BME280;36654;45.042;38.994;2023-04-07T03:18:57;101025.41;;;9.57;86.92
50684;BME280;36654;45.042;38.994;2023-04-07T03:21:23;101025.66;;;9.69;87.09
50684;BME280;36654;45.042;38.994;2023-04-07T03:23:49;100998.81;;;9.49;87.05
50684;BME280;36654;45.042;38.994;2023-04-07T03:26:14;100996.00;;;9.41;86.68
50684;BME280;36654;45.042;38.994;2023-04-07T03:28:43;101019.97;;;9.49;86.69
50684;BME280;36654;45.042;38.994;2023-04-07T03:31:08;101037.88;;;9.62;86.88
50684;BME280;36654;45.042;38.994;2023-04-07T03:33:34;100979.91;;;9.31;86.72
50684;BME280;36654;45.042;38.994;2023-04-07T03:36:00;100995.88;;;9.35;86.97
50684;BME280;36654;45.042;38.994;2023-04-07T03:38:25;101022.78;;;9.57;87.07
50684;BME280;36654;45.042;38.994;2023-04-07T03:40:51;101037.00;;;9.62;87.12
50684;BME280;36654;45.042;38.994;2023-04-07T03:43:17;100996.88;;;9.42;86.74
50684;BME280;36654;45.042;38.994;2023-04-07T03:45:42;101044.88;;;9.60;86.93
50684;BME280;36654;45.042;38.994;2023-04-07T03:48:08;101043.31;;;9.68;87.04
50684;BME280;36654;45.042;38.994;2023-04-07T03:50:40;101029.06;;;9.63;86.70
50684;BME280;36654;45.042;38.994;2023-04-07T03:53:06;101034.53;;;9.71;86.67
50684;BME280;36654;45.042;38.994;2023-04-07T03:55:33;101034.34;;;9.63;86.40
50684;BME280;36654;45.042;38.994;2023-04-07T03:57:59;101041.50;;;9.67;86.04
50684;BME280;36654;45.042;38.994;2023-04-07T04:00:25;101052.03;;;9.66;86.07
50684;BME280;36654;45.042;38.994;2023-04-07T04:02:51;101039.72;;;9.66;86.15
50684;BME280;36654;45.042;38.994;2023-04-07T04:05:17;101043.22;;;9.65;86.09
50684;BME280;36654;45.042;38.994;2023-04-07T04:07:43;101052.28;;;9.77;86.06
50684;BME280;36654;45.042;38.994;2023-04-07T04:10:08;101021.09;;;9.62;85.88
50684;BME280;36654;45.042;38.994;2023-04-07T04:12:34;101054.94;;;9.78;85.51
50684;BME280;36654;45.042;38.994;2023-04-07T04:15:00;101041.63;;;9.74;85.48
50684;BME280;36654;45.042;38.994;2023-04-07T04:17:26;101037.19;;;9.72;85.43
50684;BME280;36654;45.042;38.994;2023-04-07T04:19:52;101032.47;;;9.56;85.35
50684;BME280;36654;45.042;38.994;2023-04-07T04:22:21;101070.13;;;9.87;85.33
50684;BME280;36654;45.042;38.994;2023-04-07T04:24:47;101048.66;;;9.71;85.39
50684;BME280;36654;45.042;38.994;2023-04-07T04:27:13;101065.66;;;9.84;85.33
50684;BME280;36654;45.042;38.994;2023-04-07T04:29:38;101060.31;;;9.81;85.11
50684;BME280;36654;45.042;38.994;2023-04-07T04:32:04;101070.91;;;9.83;85.16
50684;BME280;36654;45.042;38.994;2023-04-07T04:34:29;101077.16;;;9.85;85.35
50684;BME280;36654;45.042;38.994;2023-04-07T04:36:55;101082.44;;;9.85;85.04
50684;BME280;36654;45.042;38.994;2023-04-07T04:39:21;101077.09;;;9.82;85.02
50684;BME280;36654;45.042;38.994;2023-04-07T04:41:47;101062.81;;;9.74;84.97
50684;BME280;36654;45.042;38.994;2023-04-07T04:44:12;101068.13;;;9.75;85.16
50684;BME280;36654;45.042;38.994;2023-04-07T04:46:38;101086.81;;;9.83;85.28
50684;BME280;36654;45.042;38.994;2023-04-07T04:49:03;101078.75;;;9.77;85.29
50684;BME280;36654;45.042;38.994;2023-04-07T04:51:30;101090.34;;;9.82;85.30
50684;BME280;36654;45.042;38.994;2023-04-07T04:53:56;101017.19;;;9.43;85.10
50684;BME280;36654;45.042;38.994;2023-04-07T04:56:21;101091.06;;;9.75;84.97
50684;BME280;36654;45.042;38.994;2023-04-07T04:58:47;101067.09;;;9.67;85.18
50684;BME280;36654;45.042;38.994;2023-04-07T05:01:13;101091.25;;;9.84;85.60
50684;BME280;36654;45.042;38.994;2023-04-07T05:03:39;101009.31;;;9.46;85.60
50684;BME280;36654;45.042;38.994;2023-04-07T05:06:05;101082.50;;;9.88;85.65
50684;BME280;36654;45.042;38.994;2023-04-07T05:08:31;101077.16;;;9.85;85.42
50684;BME280;36654;45.042;38.994;2023-04-07T05:10:57;101083.31;;;9.85;85.60
50684;BME280;36654;45.042;38.994;2023-04-07T05:13:22;101078.03;;;9.85;85.88
50684;BME280;36654;45.042;38.994;2023-04-07T05:15:50;101055.81;;;9.77;85.67
50684;BME280;36654;45.042;38.994;2023-04-07T05:18:15;101057.69;;;9.83;85.63
50684;BME280;36654;45.042;38.994;2023-04-07T05:20:42;101057.63;;;9.80;85.66
50684;BME280;36654;45.042;38.994;2023-04-07T05:23:08;101068.41;;;9.89;85.51
50684;BME280;36654;45.042;38.994;2023-04-07T05:25:34;101064.84;;;9.87;85.51
50684;BME280;36654;45.042;38.994;2023-04-07T05:28:00;101000.63;;;9.53;85.83
50684;BME280;36654;45.042;38.994;2023-04-07T05:30:25;101072.03;;;9.94;85.70
50684;BME280;36654;45.042;38.994;2023-04-07T05:32:52;101079.28;;;10.04;85.77
50684;BME280;36654;45.042;38.994;2023-04-07T05:35:17;101009.88;;;9.74;85.91
50684;BME280;36654;45.042;38.994;2023-04-07T05:37:43;101065.28;;;10.11;85.71
50684;BME280;36654;45.042;38.994;2023-04-07T05:40:09;101074.31;;;10.23;85.70
50684;BME280;36654;45.042;38.994;2023-04-07T05:42:35;101073.63;;;10.31;85.73
50684;BME280;36654;45.042;38.994;2023-04-07T05:45:00;101012.16;;;10.02;85.37
50684;BME280;36654;45.042;38.994;2023-04-07T05:47:26;101062.25;;;10.37;85.25
50684;BME280;36654;45.042;38.994;2023-04-07T05:49:52;101075.59;;;10.43;85.01
50684;BME280;36654;45.042;38.994;2023-04-07T05:52:17;101076.50;;;10.45;84.77
50684;BME280;36654;45.042;38.994;2023-04-07T05:54:43;101011.59;;;10.23;84.57
50684;BME280;36654;45.042;38.994;2023-04-07T05:57:09;101033.16;;;10.42;84.66
50684;BME280;36654;45.042;38.994;2023-04-07T05:59:35;101085.03;;;10.80;84.16
50684;BME280;36654;45.042;38.994;2023-04-07T06:02:02;101082.47;;;10.85;83.88
50684;BME280;36654;45.042;38.994;2023-04-07T06:04:27;101029.16;;;10.67;83.42
50684;BME280;36654;45.042;38.994;2023-04-07T06:06:53;101080.00;;;10.96;83.18
50684;BME280;36654;45.042;38.994;2023-04-07T06:09:23;101088.06;;;11.04;82.77
50684;BME280;36654;45.042;38.994;2023-04-07T06:11:49;101087.19;;;11.05;82.46
50684;BME280;36654;45.042;38.994;2023-04-07T06:14:16;101071.00;;;10.88;82.19
50684;BME280;36654;45.042;38.994;2023-04-07T06:16:42;101086.16;;;10.93;82.23
50684;BME280;36654;45.042;38.994;2023-04-07T06:19:07;101081.66;;;10.89;82.02
50684;BME280;36654;45.042;38.994;2023-04-07T06:21:33;101038.00;;;10.67;82.16
50684;BME280;36654;45.042;38.994;2023-04-07T06:23:59;101082.66;;;10.97;82.16
50684;BME280;36654;45.042;38.994;2023-04-07T06:26:25;101095.19;;;11.08;82.07
50684;BME280;36654;45.042;38.994;2023-04-07T06:28:51;101094.50;;;11.21;81.95
50684;BME280;36654;45.042;38.994;2023-04-07T06:31:17;101027.88;;;10.99;81.79
50684;BME280;36654;45.042;38.994;2023-04-07T06:33:43;101091.28;;;11.43;81.62
50684;BME280;36654;45.042;38.994;2023-04-07T06:36:10;101095.91;;;11.60;81.35
50684;BME280;36654;45.042;38.994;2023-04-07T06:38:36;101096.88;;;11.68;80.54
50684;BME280;36654;45.042;38.994;2023-04-07T06:41:02;101060.25;;;11.39;79.77
50684;BME280;36654;45.042;38.994;2023-04-07T06:43:29;101102.09;;;11.60;79.31
50684;BME280;36654;45.042;38.994;2023-04-07T06:45:54;101092.16;;;11.45;79.33
50684;BME280;36654;45.042;38.994;2023-04-07T06:48:21;101115.28;;;11.53;79.36
50684;BME280;36654;45.042;38.994;2023-04-07T06:50:48;101038.66;;;11.12;79.47
50684;BME280;36654;45.042;38.994;2023-04-07T06:53:14;101099.25;;;11.43;79.43
50684;BME280;36654;45.042;38.994;2023-04-07T06:55:40;101068.03;;;11.27;79.41
50684;BME280;36654;45.042;38.994;2023-04-07T06:58:06;101040.50;;;11.16;79.15
50684;BME280;36654;45.042;38.994;2023-04-07T07:00:31;101087.84;;;11.51;79.24
50684;BME280;36654;45.042;38.994;2023-04-07T07:02:57;101017.38;;;11.09;78.82
50684;BME280;36654;45.042;38.994;2023-04-07T07:05:23;101035.25;;;11.22;78.75
50684;BME280;36654;45.042;38.994;2023-04-07T07:07:49;101091.47;;;11.60;78.57
50684;BME280;36654;45.042;38.994;2023-04-07T07:10:16;101115.63;;;11.80;78.59
50684;BME280;36654;45.042;38.994;2023-04-07T07:12:41;101108.59;;;11.84;78.00
50684;BME280;36654;45.042;38.994;2023-04-07T07:15:07;101099.81;;;11.86;77.57
50684;BME280;36654;45.042;38.994;2023-04-07T07:17:34;101078.41;;;11.77;77.48
50684;BME280;36654;45.042;38.994;2023-04-07T07:20:00;101074.97;;;11.84;77.40
50684;BME280;36654;45.042;38.994;2023-04-07T07:22:25;101091.13;;;12.03;77.07
50684;BME280;36654;45.042;38.994;2023-04-07T07:24:51;101032.28;;;11.69;77.26
50684;BME280;36654;45.042;38.994;2023-04-07T07:27:17;101090.19;;;11.98;77.10
50684;BME280;36654;45.042;38.994;2023-04-07T07:29:42;101093.78;;;12.03;77.08
50684;BME280;36654;45.042;38.994;2023-04-07T07:32:08;101034.13;;;11.73;77.12
50684;BME280;36654;45.042;38.994;2023-04-07T07:34:34;101053.69;;;11.84;77.28
50684;BME280;36654;45.042;38.994;2023-04-07T07:36:59;101085.81;;;12.03;77.10
50684;BME280;36654;45.042;38.994;2023-04-07T07:39:25;101100.03;;;12.08;76.80
50684;BME280;36654;45.042;38.994;2023-04-07T07:41:51;101072.50;;;12.00;77.17
50684;BME280;36654;45.042;38.994;2023-04-07T07:44:17;101081.41;;;12.03;77.12
50684;BME280;36654;45.042;38.994;2023-04-07T07:46:44;101059.91;;;11.83;76.98
50684;BME280;36654;45.042;38.994;2023-04-07T07:49:10;101092.00;;;12.02;76.60
50684;BME280;36654;45.042;38.994;2023-04-07T07:51:36;101048.34;;;11.78;76.86
50684;BME280;36654;45.042;38.994;2023-04-07T07:54:01;101087.59;;;12.04;76.87
50684;BME280;36654;45.042;38.994;2023-04-07T07:56:27;101086.69;;;12.02;76.91
50684;BME280;36654;45.042;38.994;2023-04-07T07:58:53;101085.75;;;11.97;76.87
50684;BME280;36654;45.042;38.994;2023-04-07T08:01:19;101091.09;;;12.00;76.75
50684;BME280;36654;45.042;38.994;2023-04-07T08:03:45;101092.84;;;11.98;76.82
50684;BME280;36654;45.042;38.994;2023-04-07T08:06:11;101089.31;;;12.00;76.92
50684;BME280;36654;45.042;38.994;2023-04-07T08:08:37;101091.06;;;11.97;76.52
50684;BME280;36654;45.042;38.994;2023-04-07T08:11:03;101036.72;;;11.70;76.60
50684;BME280;36654;45.042;38.994;2023-04-07T08:13:28;101098.25;;;12.04;76.57
50684;BME280;36654;45.042;38.994;2023-04-07T08:15:54;101097.38;;;12.08;76.45
50684;BME280;36654;45.042;38.994;2023-04-07T08:18:20;101035.84;;;11.71;76.09
50684;BME280;36654;45.042;38.994;2023-04-07T08:20:46;101090.16;;;11.95;76.12
50684;BME280;36654;45.042;38.994;2023-04-07T08:23:11;101070.34;;;11.70;76.38
50684;BME280;36654;45.042;38.994;2023-04-07T08:25:37;101090.94;;;11.87;76.72
50684;BME280;36654;45.042;38.994;2023-04-07T08:28:05;101081.06;;;11.77;76.73
50684;BME280;36654;45.042;38.994;2023-04-07T08:30:31;101091.91;;;11.91;76.82
50684;BME280;36654;45.042;38.994;2023-04-07T08:32:57;101039.38;;;11.70;76.74
50684;BME280;36654;45.042;38.994;2023-04-07T08:35:22;101090.25;;;12.01;76.23
50684;BME280;36654;45.042;38.994;2023-04-07T08:37:48;101033.16;;;11.66;76.29
50684;BME280;36654;45.042;38.994;2023-04-07T08:40:15;101038.44;;;11.68;76.38
50684;BME280;36654;45.042;38.994;2023-04-07T08:42:46;101085.75;;;11.97;76.46
50684;BME280;36654;45.042;38.994;2023-04-07T08:45:15;101060.78;;;11.85;76.28
50684;BME280;36654;45.042;38.994;2023-04-07T08:47:41;101086.66;;;11.96;76.32
50684;BME280;36654;45.042;38.994;2023-04-07T08:50:09;101088.47;;;12.01;76.41
50684;BME280;36654;45.042;38.994;2023-04-07T08:52:54;101087.63;;;12.07;76.34
50684;BME280;36654;45.042;38.994;2023-04-07T08:55:20;101096.44;;;12.03;76.44
50684;BME280;36654;45.042;38.994;2023-04-07T08:57:46;101091.13;;;12.03;76.30
50684;BME280;36654;45.042;38.994;2023-04-07T09:00:12;101057.16;;;11.77;76.40
50684;BME280;36654;45.042;38.994;2023-04-07T09:02:40;101058.03;;;11.78;76.50
50684;BME280;36654;45.042;38.994;2023-04-07T09:05:08;101055.38;;;11.73;76.43
50684;BME280;36654;45.042;38.994;2023-04-07T09:07:35;101109.72;;;12.03;76.49
50684;BME280;36654;45.042;38.994;2023-04-07T09:10:02;101098.16;;;11.98;76.57
50684;BME280;36654;45.042;38.994;2023-04-07T09:12:28;101101.78;;;12.04;76.70
50684;BME280;36654;45.042;38.994;2023-04-07T09:14:54;101048.22;;;11.69;76.47
50684;BME280;36654;45.042;38.994;2023-04-07T09:17:20;101101.72;;;12.00;76.44
50684;BME280;36654;45.042;38.994;2023-04-07T09:19:47;101064.19;;;11.72;76.56
50684;BME280;36654;45.042;38.994;2023-04-07T09:22:13;101078.50;;;11.83;76.57
50684;BME280;36654;45.042;38.994;2023-04-07T09:24:40;101086.66;;;11.96;76.27
50684;BME280;36654;45.042;38.994;2023-04-07T09:27:10;101045.66;;;11.77;76.47
50684;BME280;36654;45.042;38.994;2023-04-07T09:29:37;101091.06;;;11.97;76.34
50684;BME280;36654;45.042;38.994;2023-04-07T09:32:03;101083.94;;;11.91;76.52
50684;BME280;36654;45.042;38.994;2023-04-07T09:34:34;101083.03;;;11.91;76.85
50684;BME280;36654;45.042;38.994;2023-04-07T09:37:00;101023.34;;;11.61;77.15
50684;BME280;36654;45.042;38.994;2023-04-07T09:39:26;101044.84;;;11.85;77.35
50684;BME280;36654;45.042;38.994;2023-04-07T09:41:52;101056.56;;;12.03;77.46
50684;BME280;36654;45.042;38.994;2023-04-07T09:44:21;101066.47;;;12.16;77.36
50684;BME280;36654;45.042;38.994;2023-04-07T09:46:53;101088.78;;;12.32;77.60
50684;BME280;36654;45.042;38.994;2023-04-07T09:49:20;101052.31;;;12.17;77.53
50684;BME280;36654;45.042;38.994;2023-04-07T09:51:59;101099.47;;;12.40;77.05
50684;BME280;36654;45.042;38.994;2023-04-07T09:54:32;101093.25;;;12.38;77.01
50684;BME280;36654;45.042;38.994;2023-04-07T09:57:03;101085.25;;;12.33;77.11
50684;BME280;36654;45.042;38.994;2023-04-07T09:59:30;101034.56;;;12.13;77.18
50684;BME280;36654;45.042;38.994;2023-04-07T10:01:56;101088.78;;;12.35;77.03
50684;BME280;36654;45.042;38.994;2023-04-07T10:04:23;101095.97;;;12.42;76.79
50684;BME280;36654;45.042;38.994;2023-04-07T10:06:49;101087.91;;;12.35;77.03
50684;BME280;36654;45.042;38.994;2023-04-07T10:09:17;101045.16;;;12.12;77.02
50684;BME280;36654;45.042;38.994;2023-04-07T10:11:43;101100.41;;;12.45;77.32
50684;BME280;36654;45.042;38.994;2023-04-07T10:14:10;101101.38;;;12.55;77.43
50684;BME280;36654;45.042;38.994;2023-04-07T10:16:41;101087.06;;;12.40;77.18
50684;BME280;36654;45.042;38.994;2023-04-07T10:19:07;101104.91;;;12.50;76.93
50684;BME280;36654;45.042;38.994;2023-04-07T10:21:38;101094.19;;;12.41;76.94
50684;BME280;36654;45.042;38.994;2023-04-07T10:24:18;101056.81;;;12.24;76.83
50684;BME280;36654;45.042;38.994;2023-04-07T10:26:55;101097.81;;;12.52;76.85
50684;BME280;36654;45.042;38.994;2023-04-07T10:29:23;101041.75;;;12.26;76.74
50684;BME280;36654;45.042;38.994;2023-04-07T10:31:50;101098.78;;;12.59;76.56
50684;BME280;36654;45.042;38.994;2023-04-07T10:34:16;101095.28;;;12.63;76.15
50684;BME280;36654;45.042;38.994;2023-04-07T10:37:08;101102.31;;;12.58;75.73
50684;BME280;36654;45.042;38.994;2023-04-07T10:39:35;101088.00;;;12.44;76.02
50684;BME280;36654;45.042;38.994;2023-04-07T10:42:02;101086.22;;;12.44;76.36
50684;BME280;36654;45.042;38.994;2023-04-07T10:47:06;101109.44;;;12.62;76.50
50684;BME280;36654;45.042;38.994;2023-04-07T10:49:32;101095.28;;;12.63;76.45
50684;BME280;36654;45.042;38.994;2023-04-07T10:54:39;101036.50;;;12.33;75.90
50684;BME280;36654;45.042;38.994;2023-04-07T10:57:15;101090.00;;;12.71;75.78
50684;BME280;36654;45.042;38.994;2023-04-07T11:02:36;101097.16;;;12.80;75.61
50684;BME280;36654;45.042;38.994;2023-04-07T11:05:02;101092.72;;;12.80;75.66
50684;BME280;36654;45.042;38.994;2023-04-07T11:07:45;101083.00;;;12.81;75.58
50684;BME280;36654;45.042;38.994;2023-04-07T11:10:14;101065.25;;;12.83;75.48
50684;BME280;36654;45.042;38.994;2023-04-07T11:12:41;101096.41;;;12.93;75.12
50684;BME280;36654;45.042;38.994;2023-04-07T11:15:20;101064.44;;;12.88;74.77
50684;BME280;36654;45.042;38.994;2023-04-07T11:18:05;101072.41;;;12.90;74.61
50684;BME280;36654;45.042;38.994;2023-04-07T11:20:42;101081.31;;;12.97;74.24
50684;BME280;36654;45.042;38.994;2023-04-07T11:23:08;101068.84;;;12.88;74.23
50684;BME280;36654;45.042;38.994;2023-04-07T11:25:35;101075.03;;;12.87;74.10
50684;BME280;36654;45.042;38.994;2023-04-07T11:28:03;101083.91;;;12.86;74.03
50684;BME280;36654;45.042;38.994;2023-04-07T11:30:28;101051.00;;;12.71;74.33
50684;BME280;36654;45.042;38.994;2023-04-07T11:32:55;101083.09;;;12.93;75.10
50684;BME280;36654;45.042;38.994;2023-04-07T11:35:22;101079.63;;;13.06;74.67
50684;BME280;36654;45.042;38.994;2023-04-07T11:37:48;101080.56;;;13.16;74.69
50684;BME280;36654;45.042;38.994;2023-04-07T11:40:30;101061.06;;;13.19;74.77
50684;BME280;36654;45.042;38.994;2023-04-07T11:42:58;101040.69;;;13.21;74.07
50684;BME280;36654;45.042;38.994;2023-04-07T11:45:24;101045.09;;;13.19;73.50
50684;BME280;36654;45.042;38.994;2023-04-07T11:47:50;101045.09;;;13.19;73.47
50684;BME280;36654;45.042;38.994;2023-04-07T11:50:15;101040.69;;;13.21;73.12
50684;BME280;36654;45.042;38.994;2023-04-07T11:52:46;101041.63;;;13.32;72.89
50684;BME280;36654;45.042;38.994;2023-04-07T11:55:22;100983.81;;;13.03;72.88
50684;BME280;36654;45.042;38.994;2023-04-07T11:57:51;101037.22;;;13.37;72.83
50684;BME280;36654;45.042;38.994;2023-04-07T12:00:17;101042.56;;;13.40;72.62
50684;BME280;36654;45.042;38.994;2023-04-07T12:02:43;101045.25;;;13.43;72.96
50684;BME280;36654;45.042;38.994;2023-04-07T12:05:09;101046.16;;;13.48;72.65
50684;BME280;36654;45.042;38.994;2023-04-07T12:07:38;101046.16;;;13.51;72.17
50684;BME280;36654;45.042;38.994;2023-04-07T12:10:21;100982.06;;;13.17;71.97
50684;BME280;36654;45.042;38.994;2023-04-07T12:12:47;101053.28;;;13.55;71.69
50684;BME280;36654;45.042;38.994;2023-04-07T12:15:13;101062.16;;;13.56;71.46
50684;BME280;36654;45.042;38.994;2023-04-07T12:17:44;101048.84;;;13.54;71.82
50684;BME280;36654;45.042;38.994;2023-04-07T12:20:11;101007.94;;;13.35;70.84
50684;BME280;36654;45.042;38.994;2023-04-07T12:22:36;101051.53;;;13.67;70.94
50684;BME280;36654;45.042;38.994;2023-04-07T12:25:02;100969.72;;;13.26;70.91
50684;BME280;36654;45.042;38.994;2023-04-07T12:27:28;100992.84;;;13.39;70.47
50684;BME280;36654;45.042;38.994;2023-04-07T12:29:53;101041.81;;;13.78;70.62
50684;BME280;36654;45.042;38.994;2023-04-07T12:32:19;101028.47;;;13.75;70.46
50684;BME280;36654;45.042;38.994;2023-04-07T12:34:45;101040.06;;;13.86;70.20
50684;BME280;36654;45.042;38.994;2023-04-07T12:37:12;101045.41;;;13.94;70.11
50684;BME280;36654;45.042;38.994;2023-04-07T12:39:37;101049.84;;;13.96;70.08
50684;BME280;36654;45.042;38.994;2023-04-07T12:42:03;101027.63;;;13.97;69.95
50684;BME280;36654;45.042;38.994;2023-04-07T12:44:29;101025.00;;;14.00;69.53
50684;BME280;36654;45.042;38.994;2023-04-07T12:46:55;100959.19;;;13.69;69.15
50684;BME280;36654;45.042;38.994;2023-04-07T12:49:20;101024.13;;;14.06;69.27
50684;BME280;36654;45.042;38.994;2023-04-07T12:51:46;101030.34;;;14.14;68.97
50684;BME280;36654;45.042;38.994;2023-04-07T12:54:12;101035.66;;;14.25;68.01